Historique des mesures à Cassis (13260), France
Quotidien Résumé Juillet 11, 2018 Unités:  Métrique    US   Métrique/US
« Précédent (Jour)
Suivant (Jour) »
Quotidien Hebdomadaire Mensuel Annuel Période au choix
  Maximum: Minimum: Moyenne:
Température: TemperatureC °C 22.3 °C 25 °C
Point de rosée: DewpointC °C 9.4 °C 11.1 °C
Humidité: Humidity % 29 % 40 %
Vitesse du vent: 0 km/h 0 km/h 14.3 km/h
Rafales: 0 km/h - -
Vent:- - WSW
Pression: PressurehPa hPa 1006.3 hPa -
Précipitations: 0.0 mm    
Historical Graphs
 
 
Mesures pour : Juillet 11, 2018
Heure Temperature Point de rosée Pression Vent Vitesse du vent Rafales Humidité Pluie (par heure) Conditions
TemperatureC °C DewpointC °C PressurehPa hPa Calm     Humidity % HourlyPrecipMM mm SoftwareType W/m2
00:10 26.8 °C 11.7 °C 1007.1 hPa NW 15.6 km/h 15.6 km/h 39 % 0.0 mm open2300-1.11 W/m2
01:10 26.1 °C 11.5 °C 1007.1 hPa NW 5.6 km/h 8 km/h 40 % 0.0 mm open2300-1.11 W/m2
02:10 25.4 °C 11.2 °C 1006.6 hPa WNW 10.9 km/h 15.6 km/h 41 % 0.0 mm open2300-1.11 W/m2
03:10 24.9 °C 11.4 °C 1006.4 hPa WNW 12.2 km/h 22 km/h 43 % 0.0 mm open2300-1.11 W/m2
04:10 24.1 °C 11.7 °C 1006.4 hPa North 25.4 km/h 25.4 km/h 46 % 0.0 mm open2300-1.11 W/m2
05:10 23.5 °C 12.2 °C 1006.4 hPa WNW 13.2 km/h 14.5 km/h 49 % 0.0 mm open2300-1.11 W/m2
06:10 22.9 °C 12.2 °C 1006.3 hPa WNW 22.5 km/h 23.8 km/h 51 % 0.0 mm open2300-1.11 W/m2
07:10 22.3 °C 12.2 °C 1006.4 hPa Calm   26.7 km/h 53 % 0.0 mm open2300-1.11 W/m2
08:10 24.3 °C 13.3 °C 1006.5 hPa ENE 3.4 km/h 8 km/h 50 % 0.0 mm open2300-1.11 W/m2
09:10 23.1 °C 11.8 °C 1006.5 hPa NW 23.8 km/h 23.8 km/h 49 % 0.0 mm open2300-1.11 W/m2
10:10 24.6 °C 12.2 °C 1006.8 hPa NW 9.3 km/h 13.2 km/h 46 % 0.0 mm open2300-1.11 W/m2
11:10 26.4 °C 12.1 °C 1006.7 hPa North 36 km/h 36 km/h 41 % 0.0 mm open2300-1.11 W/m2
12:10 26.6 °C 11.5 °C 1006.8 hPa NNE 19.6 km/h 61.3 km/h 39 % 0.0 mm open2300-1.11 W/m2
13:10 26.9 °C 10.9 °C 1006.8 hPa North 16.9 km/h 27.7 km/h 37 % 0.0 mm open2300-1.11 W/m2
14:10 27.9 °C 11.8 °C 1006.6 hPa WNW 28.5 km/h 28.5 km/h 37 % 0.0 mm open2300-1.11 W/m2
15:10 28.4 °C 11.4 °C 1006.7 hPa NW 15 km/h 40.7 km/h 35 % 0.0 mm open2300-1.11 W/m2
16:10 28.8 °C 9.9 °C 1006.7 hPa WNW 23 km/h 23 km/h 31 % 0.0 mm open2300-1.11 W/m2
17:10 29.4 °C 9.4 °C 1006.5 hPa West 15 km/h 29 km/h 29 % 0.0 mm open2300-1.11 W/m2
18:10 29.7 °C 9.7 °C 1006.5 hPa West 17.9 km/h 17.9 km/h 29 % 0.0 mm open2300-1.11 W/m2
19:10 29.1 °C 11.1 °C 1006.4 hPa West 9.8 km/h 13.2 km/h 33 % 0.0 mm open2300-1.11 W/m2
20:10 27.9 °C 11.8 °C 1007.0 hPa WNW 7.6 km/h 17.9 km/h 37 % 0.0 mm open2300-1.11 W/m2
21:10 26.5 °C 11.8 °C 1007.4 hPa NNW 5.1 km/h 15 km/h 40 % 0.0 mm open2300-1.11 W/m2
22:10 25.1 °C 12.6 °C 1007.9 hPa NW 6.9 km/h 12.2 km/h 46 % 0.0 mm open2300-1.11 W/m2
23:10 24.4 °C 12.3 °C 1008.4 hPa WNW 15 km/h 15 km/h 47 % 0.0 mm open2300-1.11 W/m2
Observations météo à CASSIS
WU-History script by Weather Underground - 1 mb